createdAt,value
2018-08-09T05:02:19.083Z,51.04
2018-08-09T05:07:22.418Z,50.75
2018-08-09T05:12:25.751Z,50.49
2018-08-09T05:17:29.087Z,50.26
2018-08-09T05:22:32.417Z,50.40
2018-08-09T05:27:35.748Z,50.29
2018-08-09T05:32:39.079Z,50.19
2018-08-09T05:37:42.405Z,49.88
2018-08-09T05:42:45.882Z,49.62
2018-08-09T05:47:49.204Z,49.49
2018-08-09T05:52:52.549Z,49.31
2018-08-09T05:57:55.879Z,49.25
2018-08-09T06:02:59.967Z,48.96
2018-08-09T06:08:03.293Z,48.65
2018-08-09T06:13:06.618Z,48.34
2018-08-09T06:18:09.935Z,48.07
2018-08-09T06:23:14.034Z,47.84
2018-08-09T06:28:17.366Z,47.57
2018-08-09T06:33:20.709Z,47.13
2018-08-09T06:38:24.815Z,47.07
2018-08-09T06:43:28.143Z,46.67
2018-08-09T06:48:32.411Z,46.70
2018-08-09T06:53:35.777Z,46.70
2018-08-09T06:58:39.866Z,46.68
2018-08-09T07:03:43.195Z,46.34
2018-08-09T07:08:46.542Z,46.33
2018-08-09T07:13:50.810Z,46.25
2018-08-09T07:18:54.167Z,46.15
2018-08-09T07:23:57.617Z,46.00
2018-08-09T07:29:00.946Z,45.70
2018-08-09T07:34:04.275Z,45.51
2018-08-09T07:39:07.606Z,45.18
2018-08-09T07:44:10.934Z,44.83
2018-08-09T07:49:14.274Z,44.82
2018-08-09T07:54:18.404Z,44.71
2018-08-09T07:59:21.718Z,44.60
2018-08-09T08:04:25.817Z,44.38
2018-08-09T08:09:29.150Z,44.00
2018-08-09T08:14:33.236Z,43.87
2018-08-09T08:19:36.564Z,43.58
2018-08-09T08:24:42.938Z,42.48
2018-08-09T08:29:46.270Z,41.95
2018-08-09T08:34:49.607Z,41.57
2018-08-09T08:39:53.702Z,41.06
2018-08-09T08:44:57.026Z,40.59
2018-08-09T08:50:00.355Z,39.48
2018-08-09T08:55:04.497Z,39.49
2018-08-09T09:00:07.797Z,38.92
2018-08-09T09:05:11.969Z,38.68
2018-08-09T09:10:15.211Z,38.39
2018-08-09T09:15:18.540Z,38.33
2018-08-09T09:20:22.630Z,37.88
2018-08-09T09:25:25.959Z,37.59
2018-08-09T09:30:29.304Z,37.27
2018-08-09T09:35:33.394Z,37.09
2018-08-09T09:40:36.722Z,36.90
2018-08-09T09:45:40.061Z,36.68
2018-08-09T09:50:43.389Z,36.36
2018-08-09T09:55:47.483Z,35.88
2018-08-09T10:00:50.811Z,35.74
2018-08-09T10:05:54.898Z,35.58
2018-08-09T10:10:58.224Z,35.36
2018-08-09T10:16:01.580Z,35.12
2018-08-09T10:21:05.674Z,34.89
2018-08-09T10:26:09.015Z,34.60
2018-08-09T10:31:13.098Z,34.50
2018-08-09T10:36:16.422Z,34.35
2018-08-09T10:41:19.743Z,34.17
2018-08-09T10:46:23.091Z,33.07
2018-08-09T10:51:26.445Z,33.24
2018-08-09T10:56:29.771Z,32.51
2018-08-09T11:01:33.098Z,32.08
2018-08-09T11:06:36.431Z,31.74
2018-08-09T11:11:39.757Z,31.44
2018-08-09T11:16:43.846Z,31.56
2018-08-09T11:21:47.167Z,31.03
2018-08-09T11:26:50.503Z,30.90
2018-08-09T11:31:54.590Z,30.47
2018-08-09T11:36:57.918Z,29.60
2018-08-09T11:42:01.259Z,29.90
2018-08-09T11:47:05.353Z,29.39
2018-08-09T11:52:08.690Z,29.29
2018-08-09T11:57:12.805Z,29.07
2018-08-09T12:02:16.158Z,28.85
2018-08-09T12:07:19.487Z,27.59
2018-08-09T12:12:22.813Z,28.34
2018-08-09T12:17:26.152Z,27.08
2018-08-09T12:22:29.494Z,25.54
2018-08-09T12:27:33.587Z,24.86
2018-08-09T12:32:36.940Z,23.98
2018-08-09T12:37:40.278Z,24.76
2018-08-09T12:42:43.607Z,23.92
2018-08-09T12:47:46.933Z,24.10
2018-08-09T12:52:50.258Z,24.02
2018-08-09T12:57:53.592Z,23.94
2018-08-09T13:02:57.684Z,23.85
2018-08-09T13:08:01.021Z,23.66
2018-08-09T13:13:04.347Z,23.33
2018-08-09T13:18:07.684Z,22.46
2018-08-09T13:23:11.007Z,21.45
2018-08-09T13:28:14.338Z,21.05
2018-08-09T13:33:17.666Z,20.73
2018-08-09T13:38:20.994Z,20.62
2018-08-09T13:43:24.377Z,20.20
2018-08-09T13:48:27.681Z,20.51
2018-08-09T13:53:31.006Z,20.64
2018-08-09T13:58:34.379Z,22.00
2018-08-09T14:03:38.457Z,23.24
2018-08-09T14:08:41.788Z,22.29
2018-08-09T14:13:45.111Z,22.32
2018-08-09T14:18:49.197Z,22.06
2018-08-09T14:23:52.531Z,21.21
2018-08-09T14:28:55.861Z,20.93
2018-08-09T14:33:59.189Z,20.59
2018-08-09T14:39:03.282Z,20.06
2018-08-09T14:44:06.608Z,20.04
2018-08-09T14:49:09.934Z,20.20
2018-08-09T14:54:13.262Z,20.07
2018-08-09T14:59:16.593Z,19.98
2018-08-09T15:04:19.924Z,19.91
2018-08-09T15:09:23.259Z,19.81
2018-08-09T15:14:26.596Z,18.94
2018-08-09T15:19:30.696Z,17.97
2018-08-09T15:24:34.045Z,17.40
2018-08-09T15:29:37.369Z,17.27
2018-08-09T15:34:40.698Z,16.26
2018-08-09T15:39:44.023Z,16.29
2018-08-09T15:44:47.349Z,15.90
2018-08-09T15:49:50.682Z,16.40
2018-08-09T15:54:54.039Z,16.29
2018-08-09T15:59:57.367Z,15.79
2018-08-09T16:05:00.710Z,16.24
2018-08-09T16:10:04.100Z,16.61
2018-08-09T16:15:08.166Z,16.38
2018-08-09T16:20:11.506Z,17.08
2018-08-09T16:25:14.839Z,17.20
2018-08-09T16:30:18.748Z,17.21
2018-08-09T16:35:22.445Z,18.18
2018-08-09T16:40:26.057Z,18.42
2018-08-09T16:45:40.477Z,18.76
2018-08-09T16:50:44.248Z,17.98
2018-08-09T16:55:57.517Z,18.49
2018-08-09T17:01:01.274Z,19.03
2018-08-09T17:06:05.093Z,20.57
2018-08-09T17:11:08.764Z,25.21
2018-08-09T17:16:22.486Z,25.07
2018-08-09T17:21:26.189Z,33.44
2018-08-09T17:26:43.495Z,36.13
2018-08-09T17:31:47.170Z,38.31
2018-08-09T17:36:50.851Z,39.04
2018-08-09T17:41:54.792Z,39.53
2018-08-09T17:46:58.366Z,39.49
2018-08-09T17:52:02.837Z,39.61
2018-08-09T17:57:06.495Z,39.89
2018-08-09T18:02:10.957Z,39.64
2018-08-09T18:07:14.601Z,42.82
2018-08-09T18:12:18.300Z,48.02
2018-08-09T18:17:21.981Z,44.82
2018-08-09T18:22:26.366Z,43.62
2018-08-09T18:27:30.026Z,43.13
2018-08-09T18:32:34.631Z,42.28
2018-08-09T18:37:38.956Z,43.16
2018-08-09T18:42:43.016Z,42.50
2018-08-09T18:47:46.737Z,43.25
2018-08-09T18:52:50.486Z,43.82
2018-08-09T18:57:54.292Z,44.42
2018-08-09T19:02:58.135Z,45.41
2018-08-09T19:08:01.944Z,46.85
2018-08-09T19:13:05.657Z,47.13
2018-08-09T19:18:09.453Z,47.68
2018-08-09T19:23:13.098Z,47.88
2018-08-09T19:28:16.925Z,50.44
2018-08-09T19:33:20.651Z,49.16
2018-08-09T19:38:25.138Z,48.02
2018-08-09T19:43:28.940Z,48.14
2018-08-09T19:48:33.389Z,47.63
2018-08-09T19:53:37.394Z,47.66
2018-08-09T19:58:41.091Z,47.72
2018-08-09T20:03:44.719Z,47.39
2018-08-09T20:08:48.366Z,47.09
2018-08-09T20:13:52.018Z,47.51
2018-08-09T20:18:55.472Z,47.12
2018-08-09T20:23:59.116Z,46.47
2018-08-09T20:29:02.756Z,48.21
2018-08-09T20:34:06.193Z,54.58
2018-08-09T20:39:10.458Z,57.18
2018-08-09T20:44:39.217Z,56.40
2018-08-09T20:49:43.324Z,59.58
2018-08-09T20:54:46.654Z,57.54
2018-08-09T20:59:49.977Z,59.96
2018-08-09T21:04:53.382Z,58.60
2018-08-09T21:09:56.711Z,58.79
2018-08-09T21:15:00.060Z,57.00
2018-08-09T21:20:03.401Z,57.48
2018-08-09T21:25:06.719Z,57.30
2018-08-09T21:30:10.050Z,58.09
2018-08-09T21:35:13.370Z,58.43
2018-08-09T21:40:16.698Z,58.74
2018-08-09T21:45:20.796Z,58.88
2018-08-09T21:50:24.126Z,59.30
2018-08-09T21:55:27.451Z,59.61
2018-08-09T22:00:31.552Z,60.72
2018-08-09T22:05:35.650Z,60.31
2018-08-09T22:16:20.079Z,60.09
2018-08-09T22:21:28.999Z,60.47
2018-08-09T22:26:52.141Z,60.01
